createdAt,value
2022-12-31T00:00:48.104Z,71.76
2022-12-31T00:01:48.061Z,71.89
2022-12-31T00:02:48.024Z,71.89
2022-12-31T00:03:47.964Z,72.07
2022-12-31T00:04:47.935Z,71.89
2022-12-31T00:05:48.013Z,71.89
2022-12-31T00:06:48.073Z,72.01
2022-12-31T00:07:47.909Z,72.20
2022-12-31T00:08:47.944Z,72.01
2022-12-31T00:09:48.140Z,71.95
2022-12-31T00:10:47.953Z,71.51
2022-12-31T00:11:47.873Z,71.21
2022-12-31T00:12:48.405Z,70.90
2022-12-31T00:13:48.390Z,70.90
2022-12-31T00:14:47.856Z,70.78
2022-12-31T00:15:47.850Z,70.72
2022-12-31T00:16:47.829Z,70.66
2022-12-31T00:17:47.822Z,70.54
2022-12-31T00:18:47.792Z,70.54
2022-12-31T00:19:47.943Z,70.42
2022-12-31T00:20:47.800Z,70.07
2022-12-31T00:21:47.789Z,70.30
2022-12-31T00:22:47.760Z,70.60
2022-12-31T00:23:47.802Z,71.08
2022-12-31T00:24:47.720Z,71.51
2022-12-31T00:25:47.794Z,72.01
2022-12-31T00:26:47.765Z,73.08
2022-12-31T00:27:47.704Z,72.20
2022-12-31T00:28:47.696Z,72.13
2022-12-31T00:29:47.693Z,71.89
2022-12-31T00:30:47.688Z,71.57
2022-12-31T00:31:47.685Z,71.57
2022-12-31T00:32:47.661Z,71.51
2022-12-31T00:33:47.630Z,72.39
2022-12-31T00:34:47.703Z,71.64
2022-12-31T00:35:47.628Z,72.39
2022-12-31T00:36:47.610Z,72.77
2022-12-31T00:37:47.743Z,72.20
2022-12-31T00:38:47.597Z,71.95
2022-12-31T00:39:47.603Z,72.89
2022-12-31T00:40:47.563Z,73.60
2022-12-31T00:41:47.585Z,73.86
2022-12-31T00:42:47.548Z,74.00
2022-12-31T00:43:47.587Z,73.41
2022-12-31T00:44:47.547Z,74.19
2022-12-31T00:45:47.571Z,74.33
2022-12-31T00:46:48.677Z,73.73
2022-12-31T00:47:47.508Z,74.86
2022-12-31T00:48:47.513Z,73.93
2022-12-31T00:49:47.469Z,74.59
2022-12-31T00:50:47.518Z,73.80
2022-12-31T00:51:47.520Z,73.54
2022-12-31T00:52:47.491Z,73.47
2022-12-31T00:53:47.486Z,73.34
2022-12-31T00:54:47.437Z,73.08
2022-12-31T00:55:48.841Z,73.47
2022-12-31T00:56:47.411Z,73.73
2022-12-31T00:57:47.495Z,73.93
2022-12-31T00:58:47.424Z,73.28
2022-12-31T00:59:47.395Z,72.64
2022-12-31T01:00:47.441Z,72.96
2022-12-31T01:01:47.555Z,72.20
2022-12-31T01:02:47.549Z,72.32
2022-12-31T01:03:47.357Z,72.07
2022-12-31T01:04:47.411Z,72.77
2022-12-31T01:05:47.403Z,71.89
2022-12-31T01:06:47.350Z,73.15
2022-12-31T01:07:47.374Z,73.41
2022-12-31T01:08:47.360Z,72.57
2022-12-31T01:09:47.317Z,72.83
2022-12-31T01:10:47.268Z,72.45
2022-12-31T01:11:47.324Z,73.34
2022-12-31T01:12:47.264Z,73.86
2022-12-31T01:13:47.272Z,73.08
2022-12-31T01:14:47.287Z,74.33
2022-12-31T01:15:47.292Z,74.00
2022-12-31T01:16:47.207Z,75.27
2022-12-31T01:17:47.248Z,76.38
2022-12-31T01:18:47.246Z,77.16
2022-12-31T01:19:47.176Z,76.59
2022-12-31T01:20:47.187Z,76.94
2022-12-31T01:21:47.187Z,77.30
2022-12-31T01:22:47.171Z,78.39
2022-12-31T01:23:47.151Z,78.54
2022-12-31T01:24:47.152Z,80.52
2022-12-31T01:25:47.128Z,80.91
2022-12-31T01:26:47.127Z,81.47
2022-12-31T01:27:47.135Z,81.63
2022-12-31T01:28:47.087Z,81.63
2022-12-31T01:29:47.134Z,79.67
2022-12-31T01:30:47.149Z,79.29
2022-12-31T01:31:47.058Z,78.17
2022-12-31T01:32:47.056Z,77.66
2022-12-31T01:33:47.058Z,77.59
2022-12-31T01:34:47.028Z,77.37
2022-12-31T01:35:47.072Z,77.16
2022-12-31T01:36:47.079Z,76.03
2022-12-31T01:37:47.109Z,76.80
2022-12-31T01:38:46.989Z,76.45
2022-12-31T01:39:47.028Z,76.59
2022-12-31T01:40:47.002Z,76.66
2022-12-31T01:41:47.055Z,76.45
2022-12-31T01:42:46.967Z,76.73
2022-12-31T01:43:46.951Z,77.16
2022-12-31T01:44:46.936Z,76.52
2022-12-31T01:45:46.943Z,76.94
2022-12-31T01:46:46.996Z,77.23
2022-12-31T01:47:46.913Z,77.66
2022-12-31T01:48:46.946Z,77.08
2022-12-31T01:49:46.883Z,77.08
2022-12-31T01:50:46.864Z,78.10
2022-12-31T01:51:46.860Z,78.61
2022-12-31T01:52:46.880Z,78.91
2022-12-31T01:53:46.844Z,79.98
2022-12-31T01:54:46.845Z,80.91
2022-12-31T01:55:47.011Z,80.83
2022-12-31T01:56:46.810Z,80.91
2022-12-31T01:57:46.839Z,81.79
2022-12-31T01:58:46.806Z,81.79
2022-12-31T01:59:46.945Z,81.95
2022-12-31T02:00:46.840Z,82.43
2022-12-31T02:01:46.886Z,81.63
2022-12-31T02:02:46.875Z,82.76
2022-12-31T02:03:46.766Z,83.51
2022-12-31T02:04:46.737Z,83.76
2022-12-31T02:05:46.760Z,84.62
2022-12-31T02:06:46.705Z,84.96
2022-12-31T02:07:46.729Z,85.75
2022-12-31T02:08:46.695Z,86.65
2022-12-31T02:09:46.682Z,87.01
2022-12-31T02:10:46.703Z,86.65
2022-12-31T02:11:46.672Z,87.65
2022-12-31T02:12:46.728Z,87.19
2022-12-31T02:13:46.688Z,88.11
2022-12-31T02:14:46.734Z,87.37
2022-12-31T02:15:46.697Z,87.84
2022-12-31T02:16:46.657Z,88.68
2022-12-31T02:17:46.625Z,88.58
2022-12-31T02:18:46.610Z,89.15
2022-12-31T02:19:46.591Z,89.06
2022-12-31T02:20:46.616Z,89.73
2022-12-31T02:21:46.567Z,90.42
2022-12-31T02:22:46.579Z,89.73
2022-12-31T02:23:46.538Z,89.64
2022-12-31T02:24:46.539Z,90.12
2022-12-31T02:25:46.536Z,89.44
2022-12-31T02:26:46.516Z,89.06
2022-12-31T02:27:46.523Z,88.87
2022-12-31T02:28:46.523Z,88.87
2022-12-31T02:29:46.531Z,88.40
2022-12-31T02:30:46.470Z,87.84
2022-12-31T02:31:46.496Z,87.37
2022-12-31T02:32:46.463Z,87.10
2022-12-31T02:33:46.467Z,86.56
2022-12-31T02:34:46.428Z,86.56
2022-12-31T02:35:46.447Z,85.49
2022-12-31T02:36:46.416Z,85.84
2022-12-31T02:37:46.462Z,85.40
2022-12-31T02:38:46.390Z,86.56
2022-12-31T02:39:46.414Z,86.92
2022-12-31T02:40:46.377Z,86.29
2022-12-31T02:41:46.365Z,86.11
2022-12-31T02:42:50.094Z,85.84
2022-12-31T02:43:46.362Z,85.66
2022-12-31T02:44:46.329Z,85.49
2022-12-31T02:45:46.460Z,85.22
2022-12-31T02:46:46.387Z,85.40
2022-12-31T02:47:46.342Z,85.05
2022-12-31T02:48:46.330Z,85.14
2022-12-31T02:49:46.319Z,84.96
2022-12-31T02:50:46.293Z,84.62
2022-12-31T02:51:46.292Z,84.44
2022-12-31T02:52:46.288Z,84.36
2022-12-31T02:53:46.251Z,83.85
2022-12-31T02:54:46.251Z,83.43
2022-12-31T02:55:46.255Z,83.51
2022-12-31T02:56:46.206Z,83.10
2022-12-31T02:57:46.206Z,82.76
2022-12-31T02:58:46.193Z,82.27
2022-12-31T02:59:46.196Z,82.27
2022-12-31T03:00:46.211Z,81.87
2022-12-31T03:01:46.331Z,81.71
2022-12-31T03:02:46.189Z,81.79
2022-12-31T03:03:46.170Z,81.15
2022-12-31T03:04:46.178Z,81.47
2022-12-31T03:05:46.163Z,79.98
2022-12-31T03:06:46.187Z,79.59
2022-12-31T03:07:46.103Z,79.14
2022-12-31T03:08:46.086Z,79.06
2022-12-31T03:09:46.084Z,80.05
2022-12-31T03:10:46.123Z,80.05
2022-12-31T03:11:46.071Z,80.68
2022-12-31T03:12:46.056Z,81.39
2022-12-31T03:13:46.054Z,81.47
2022-12-31T03:14:46.043Z,81.55
2022-12-31T03:15:46.056Z,83.10
2022-12-31T03:16:46.071Z,84.36
2022-12-31T03:17:46.032Z,86.11
2022-12-31T03:18:46.021Z,87.65
2022-12-31T03:19:46.034Z,88.40
2022-12-31T03:20:45.970Z,88.11
2022-12-31T03:21:45.987Z,88.11
2022-12-31T03:22:45.980Z,88.11
2022-12-31T03:23:45.979Z,88.58
2022-12-31T03:24:45.965Z,88.58
2022-12-31T03:25:45.943Z,89.15
2022-12-31T03:26:45.928Z,90.02
2022-12-31T03:27:45.932Z,90.42
2022-12-31T03:28:45.912Z,90.02
2022-12-31T03:29:45.895Z,90.81
2022-12-31T03:30:45.881Z,89.83
2022-12-31T03:31:45.923Z,90.02
2022-12-31T03:32:45.885Z,89.93
2022-12-31T03:33:45.972Z,90.61
2022-12-31T03:34:45.876Z,92.32
2022-12-31T03:35:45.823Z,93.57
2022-12-31T03:36:45.891Z,93.26
2022-12-31T03:37:45.836Z,92.84
2022-12-31T03:38:49.856Z,93.89
2022-12-31T03:39:45.808Z,92.74
2022-12-31T03:40:45.805Z,93.05
2022-12-31T03:41:45.756Z,92.94
2022-12-31T03:42:45.870Z,91.41
2022-12-31T03:43:45.736Z,89.35
2022-12-31T03:44:45.738Z,89.35
2022-12-31T03:45:45.807Z,87.10
2022-12-31T03:46:45.778Z,85.84
2022-12-31T03:47:45.718Z,85.05
2022-12-31T03:48:45.734Z,84.44
2022-12-31T03:49:45.680Z,83.68
2022-12-31T03:50:45.693Z,83.10
2022-12-31T03:51:45.761Z,81.87
2022-12-31T03:52:45.661Z,80.75
2022-12-31T03:53:45.647Z,80.44
2022-12-31T03:54:45.631Z,80.05
2022-12-31T03:55:45.717Z,79.21
2022-12-31T03:56:47.923Z,79.90
2022-12-31T03:57:45.635Z,78.25
2022-12-31T03:58:45.596Z,77.51
2022-12-31T03:59:45.586Z,77.16
2022-12-31T04:00:45.686Z,76.80
2022-12-31T04:01:45.687Z,76.87
2022-12-31T04:02:45.622Z,76.38
2022-12-31T04:03:45.555Z,76.17
2022-12-31T04:04:45.556Z,76.03
2022-12-31T04:05:45.548Z,76.31
2022-12-31T04:06:45.508Z,75.96
2022-12-31T04:07:45.514Z,77.08
2022-12-31T04:08:45.554Z,77.30
2022-12-31T04:09:45.503Z,77.30
2022-12-31T04:10:45.489Z,77.59
2022-12-31T04:11:45.501Z,79.37
2022-12-31T04:12:45.487Z,79.21
2022-12-31T04:13:45.453Z,79.98
2022-12-31T04:14:45.435Z,80.36
2022-12-31T04:15:45.477Z,80.44
2022-12-31T04:16:45.556Z,79.82
2022-12-31T04:17:45.447Z,79.59
2022-12-31T04:18:45.425Z,78.99
2022-12-31T04:19:45.397Z,79.14
2022-12-31T04:20:45.391Z,78.54
2022-12-31T04:21:45.373Z,79.59
2022-12-31T04:22:45.367Z,79.21
2022-12-31T04:23:45.423Z,78.39
2022-12-31T04:24:45.355Z,78.10
2022-12-31T04:25:45.391Z,77.37
2022-12-31T04:26:45.592Z,77.73
2022-12-31T04:27:45.362Z,76.94
2022-12-31T04:28:45.325Z,77.30
2022-12-31T04:29:45.412Z,77.30
2022-12-31T04:30:45.317Z,77.37
2022-12-31T04:31:45.300Z,78.84
2022-12-31T04:32:45.292Z,78.25
2022-12-31T04:33:45.269Z,78.99
2022-12-31T04:34:45.324Z,78.39
2022-12-31T04:35:45.242Z,78.10
2022-12-31T04:36:45.238Z,78.10
2022-12-31T04:37:45.218Z,78.84
2022-12-31T04:38:45.205Z,78.03
2022-12-31T04:39:45.188Z,78.47
2022-12-31T04:40:45.190Z,77.51
2022-12-31T04:41:45.179Z,78.39
2022-12-31T04:42:45.146Z,77.44
2022-12-31T04:43:45.199Z,77.37
2022-12-31T04:44:45.164Z,77.30
2022-12-31T04:45:45.181Z,77.66
2022-12-31T04:46:45.115Z,77.30
2022-12-31T04:47:45.119Z,77.59
2022-12-31T04:48:45.204Z,77.51
2022-12-31T04:49:45.137Z,77.81
2022-12-31T04:50:45.100Z,77.16
2022-12-31T04:51:45.061Z,76.38
2022-12-31T04:52:45.052Z,76.80
2022-12-31T04:53:45.070Z,75.89
2022-12-31T04:54:45.032Z,76.03
2022-12-31T04:55:45.029Z,75.82
2022-12-31T04:56:45.025Z,75.82
2022-12-31T04:57:45.019Z,77.01
2022-12-31T04:58:45.038Z,77.66
2022-12-31T04:59:44.989Z,78.03
2022-12-31T05:00:44.978Z,78.17
2022-12-31T05:01:45.082Z,77.30
2022-12-31T05:02:45.127Z,76.38
2022-12-31T05:03:44.996Z,75.96
2022-12-31T05:04:44.933Z,74.86
2022-12-31T05:05:44.973Z,74.46
2022-12-31T05:06:44.980Z,73.28
2022-12-31T05:07:44.955Z,72.96
2022-12-31T05:08:44.913Z,71.70
2022-12-31T05:09:44.887Z,71.15
2022-12-31T05:10:44.941Z,71.57
2022-12-31T05:11:44.876Z,70.30
2022-12-31T05:12:44.847Z,69.60
2022-12-31T05:13:44.939Z,69.25
2022-12-31T05:14:44.839Z,68.79
2022-12-31T05:15:44.841Z,68.11
2022-12-31T05:16:44.844Z,68.11
2022-12-31T05:17:44.980Z,68.00
2022-12-31T05:18:44.826Z,68.39
2022-12-31T05:19:44.849Z,68.79
2022-12-31T05:20:44.786Z,69.02
2022-12-31T05:21:44.784Z,69.42
2022-12-31T05:22:44.751Z,69.36
2022-12-31T05:23:44.772Z,69.31
2022-12-31T05:24:44.763Z,70.66
2022-12-31T05:25:44.737Z,70.96
2022-12-31T05:26:44.737Z,71.64
2022-12-31T05:27:44.718Z,71.76
2022-12-31T05:28:44.726Z,72.13
2022-12-31T05:29:45.605Z,73.21
2022-12-31T05:30:44.765Z,73.21
2022-12-31T05:31:44.695Z,74.93
2022-12-31T05:32:44.681Z,75.07
2022-12-31T05:33:44.847Z,74.59
2022-12-31T05:34:44.674Z,75.68
2022-12-31T05:35:44.706Z,76.38
2022-12-31T05:36:44.637Z,76.87
2022-12-31T05:37:44.622Z,77.01
2022-12-31T05:38:44.593Z,77.51
2022-12-31T05:39:44.595Z,78.39
2022-12-31T05:40:44.604Z,78.61
2022-12-31T05:41:44.570Z,79.14
2022-12-31T05:42:44.634Z,79.90
2022-12-31T05:43:44.625Z,78.69
2022-12-31T05:44:44.581Z,79.90
2022-12-31T05:45:44.616Z,80.36
2022-12-31T05:46:44.548Z,81.47
2022-12-31T05:47:44.537Z,82.76
2022-12-31T05:48:44.517Z,84.44
2022-12-31T05:49:44.564Z,86.20
2022-12-31T05:50:44.491Z,87.93
2022-12-31T05:51:44.550Z,89.93
2022-12-31T05:52:47.636Z,92.84
2022-12-31T05:53:44.500Z,95.95
2022-12-31T05:54:44.437Z,97.51
2022-12-31T05:55:44.462Z,100.45
2022-12-31T05:56:44.460Z,104.30
2022-12-31T05:57:44.411Z,107.33
2022-12-31T05:58:44.423Z,110.91
2022-12-31T05:59:44.405Z,114.65
2022-12-31T06:00:44.378Z,118.16
2022-12-31T06:01:44.363Z,123.42
2022-12-31T06:02:44.442Z,129.68
2022-12-31T06:03:44.440Z,132.57
2022-12-31T06:04:44.331Z,136.94
2022-12-31T06:05:44.341Z,138.31
2022-12-31T06:06:44.372Z,139.24
2022-12-31T06:07:44.460Z,137.17
2022-12-31T06:08:44.299Z,134.07
2022-12-31T06:09:44.305Z,131.42
2022-12-31T06:10:44.320Z,126.43
2022-12-31T06:11:44.281Z,120.73
2022-12-31T06:12:44.275Z,113.48
2022-12-31T06:13:44.239Z,109.59
2022-12-31T06:14:45.944Z,106.16
2022-12-31T06:15:44.281Z,103.45
2022-12-31T06:16:44.233Z,100.51
2022-12-31T06:17:44.236Z,97.56
2022-12-31T06:18:44.211Z,95.93
2022-12-31T06:19:44.622Z,95.73
2022-12-31T06:20:44.191Z,94.74
2022-12-31T06:21:44.180Z,93.26
2022-12-31T06:22:44.160Z,93.68
2022-12-31T06:23:44.184Z,92.74
2022-12-31T06:24:44.182Z,92.22
2022-12-31T06:25:44.185Z,91.51
2022-12-31T06:26:44.266Z,89.54
2022-12-31T06:27:44.129Z,89.54
2022-12-31T06:28:44.101Z,88.21
2022-12-31T06:29:44.116Z,87.01
2022-12-31T06:30:44.113Z,87.28
2022-12-31T06:31:44.067Z,85.75
2022-12-31T06:32:44.106Z,85.93
2022-12-31T06:33:44.057Z,85.84
2022-12-31T06:34:44.057Z,85.66
2022-12-31T06:35:43.998Z,86.20
2022-12-31T06:36:44.028Z,87.10
2022-12-31T06:37:43.970Z,87.19
2022-12-31T06:38:44.020Z,88.11
2022-12-31T06:39:43.987Z,89.83
2022-12-31T06:40:43.954Z,91.11
2022-12-31T06:41:43.931Z,93.68
2022-12-31T06:42:43.914Z,94.53
2022-12-31T06:43:43.892Z,93.78
2022-12-31T06:44:43.909Z,92.53
2022-12-31T06:45:43.959Z,90.91
2022-12-31T06:46:43.935Z,90.51
2022-12-31T06:47:43.935Z,88.96
2022-12-31T06:48:43.892Z,89.15
2022-12-31T06:49:43.835Z,86.38
2022-12-31T06:50:43.865Z,85.31
2022-12-31T06:51:43.819Z,83.93
2022-12-31T06:52:43.803Z,83.26
2022-12-31T06:53:43.807Z,82.03
2022-12-31T06:54:43.779Z,81.31
2022-12-31T06:55:43.827Z,80.52
2022-12-31T06:56:43.814Z,80.13
2022-12-31T06:57:43.774Z,79.82
2022-12-31T06:58:43.740Z,80.21
2022-12-31T06:59:43.781Z,80.68
2022-12-31T07:00:43.807Z,81.95
2022-12-31T07:01:43.938Z,82.35
2022-12-31T07:02:43.921Z,82.03
2022-12-31T07:03:43.741Z,83.10
2022-12-31T07:04:43.764Z,83.18
2022-12-31T07:05:43.682Z,83.85
2022-12-31T07:06:43.672Z,85.22
2022-12-31T07:07:43.658Z,85.57
2022-12-31T07:08:43.676Z,85.93
2022-12-31T07:09:43.661Z,85.84
2022-12-31T07:10:43.623Z,86.38
2022-12-31T07:11:43.631Z,85.49
2022-12-31T07:12:43.622Z,85.31
2022-12-31T07:13:43.603Z,84.19
2022-12-31T07:14:43.686Z,82.85
2022-12-31T07:15:43.673Z,81.79
2022-12-31T07:16:43.614Z,80.52
2022-12-31T07:17:43.561Z,80.05
2022-12-31T07:18:43.539Z,79.67
2022-12-31T07:19:43.630Z,78.91
2022-12-31T07:20:43.531Z,78.54
2022-12-31T07:21:43.548Z,77.95
2022-12-31T07:22:43.504Z,77.51
2022-12-31T07:23:43.497Z,78.10
2022-12-31T07:24:43.480Z,77.81
2022-12-31T07:25:43.501Z,78.39
2022-12-31T07:26:43.533Z,77.81
2022-12-31T07:27:43.461Z,77.59
2022-12-31T07:28:43.452Z,78.25
2022-12-31T07:29:43.500Z,78.99
2022-12-31T07:30:43.455Z,79.98
2022-12-31T07:31:43.512Z,80.99
2022-12-31T07:32:43.430Z,82.35
2022-12-31T07:33:43.447Z,83.93
2022-12-31T07:34:43.393Z,86.20
2022-12-31T07:35:43.374Z,86.92
2022-12-31T07:36:43.381Z,90.61
2022-12-31T07:37:43.424Z,93.89
2022-12-31T07:38:43.363Z,98.08
2022-12-31T07:39:43.391Z,103.97
2022-12-31T07:40:43.360Z,111.13
2022-12-31T07:41:43.323Z,116.42
2022-12-31T07:42:43.329Z,124.53
2022-12-31T07:43:43.305Z,131.11
2022-12-31T07:44:43.289Z,137.06
2022-12-31T07:45:43.295Z,137.97
2022-12-31T07:46:43.382Z,141.61
2022-12-31T07:47:43.254Z,139.01
2022-12-31T07:48:43.247Z,139.01
2022-12-31T07:49:43.228Z,138.20
2022-12-31T07:50:43.298Z,139.94
2022-12-31T07:51:43.247Z,143.07
2022-12-31T07:52:43.261Z,148.44
2022-12-31T07:53:43.217Z,153.79
2022-12-31T07:54:43.203Z,161.88
2022-12-31T07:55:43.198Z,169.12
2022-12-31T07:56:43.262Z,175.74
2022-12-31T07:57:43.193Z,181.89
2022-12-31T07:58:43.224Z,185.75
2022-12-31T07:59:43.137Z,187.15
2022-12-31T08:00:43.224Z,189.97
2022-12-31T08:01:43.348Z,195.42
2022-12-31T08:02:43.163Z,197.19
2022-12-31T08:03:43.108Z,199.85
2022-12-31T08:04:43.153Z,205.24
2022-12-31T08:05:43.079Z,211.21
2022-12-31T08:06:43.137Z,217.39
2022-12-31T08:07:43.061Z,223.63
2022-12-31T08:08:43.058Z,227.84
2022-12-31T08:09:43.087Z,230.57
2022-12-31T08:10:43.158Z,232.21
2022-12-31T08:11:43.079Z,233.87
2022-12-31T08:12:43.023Z,235.73
2022-12-31T08:13:43.031Z,233.21
2022-12-31T08:14:43.027Z,229.93
2022-12-31T08:15:43.014Z,228.32
2022-12-31T08:16:43.085Z,227.05
2022-12-31T08:17:43.019Z,226.58
2022-12-31T08:18:42.965Z,224.40
2022-12-31T08:19:42.966Z,224.87
2022-12-31T08:20:42.930Z,224.09
2022-12-31T08:21:42.956Z,223.18
2022-12-31T08:22:42.906Z,225.49
2022-12-31T08:23:42.888Z,223.79
2022-12-31T08:24:42.900Z,226.11
2022-12-31T08:25:42.884Z,229.93
2022-12-31T08:26:45.824Z,226.42
2022-12-31T08:27:42.865Z,224.40
2022-12-31T08:28:42.860Z,222.27
2022-12-31T08:29:42.827Z,222.72
2022-12-31T08:30:42.911Z,222.12
2022-12-31T08:31:42.985Z,224.56
2022-12-31T08:32:42.816Z,225.33
2022-12-31T08:33:42.792Z,227.05
2022-12-31T08:34:42.854Z,226.42
2022-12-31T08:35:42.771Z,227.21
2022-12-31T08:36:42.826Z,228.48
2022-12-31T08:37:42.773Z,228.96
2022-12-31T08:38:42.752Z,231.88
2022-12-31T08:39:42.857Z,235.22
2022-12-31T08:40:42.731Z,236.58
2022-12-31T08:41:43.339Z,233.71
2022-12-31T08:42:42.881Z,232.88
2022-12-31T08:43:42.774Z,236.58
2022-12-31T08:44:42.699Z,234.38
2022-12-31T08:45:42.714Z,236.93
2022-12-31T08:46:42.694Z,239.00
2022-12-31T08:47:42.673Z,243.45
2022-12-31T08:48:42.697Z,244.91
2022-12-31T08:49:42.649Z,246.21
2022-12-31T08:50:42.623Z,244.91
2022-12-31T08:51:42.729Z,246.21
2022-12-31T08:52:42.614Z,247.51
2022-12-31T08:53:42.589Z,246.76
2022-12-31T08:54:42.642Z,248.07
2022-12-31T08:55:42.662Z,248.64
2022-12-31T08:56:46.031Z,246.21
2022-12-31T08:57:42.559Z,243.27
2022-12-31T08:58:42.575Z,239.88
2022-12-31T08:59:42.528Z,237.44
2022-12-31T09:00:42.552Z,231.55
2022-12-31T09:01:42.673Z,233.21
2022-12-31T09:02:47.891Z,233.21
2022-12-31T09:03:42.499Z,234.88
2022-12-31T09:04:42.500Z,239.88
2022-12-31T09:05:42.533Z,239.88
2022-12-31T09:06:42.465Z,246.21
2022-12-31T09:07:42.482Z,246.95
2022-12-31T09:08:42.554Z,247.70
2022-12-31T09:09:42.450Z,252.68
2022-12-31T09:10:42.460Z,255.04
2022-12-31T09:11:42.430Z,259.91
2022-12-31T09:12:42.406Z,262.83
2022-12-31T09:13:42.409Z,267.35
2022-12-31T09:14:42.461Z,271.57
2022-12-31T09:15:42.496Z,271.79
2022-12-31T09:16:42.486Z,281.14
2022-12-31T09:17:42.381Z,292.99
2022-12-31T09:18:42.343Z,301.64
2022-12-31T09:19:42.364Z,305.30
2022-12-31T09:20:44.054Z,310.82
2022-12-31T09:21:42.340Z,321.83
2022-12-31T09:22:42.337Z,334.34
2022-12-31T09:23:42.290Z,337.80
2022-12-31T09:24:42.297Z,343.12
2022-12-31T09:25:42.295Z,345.29
2022-12-31T09:26:42.272Z,342.40
2022-12-31T09:27:42.254Z,340.26
2022-12-31T09:28:42.245Z,342.40
2022-12-31T09:29:42.236Z,337.10
2022-12-31T09:30:42.896Z,337.80
2022-12-31T09:31:43.116Z,340.61
2022-12-31T09:32:42.489Z,340.97
2022-12-31T09:33:43.204Z,340.97
2022-12-31T09:34:43.213Z,343.84
2022-12-31T09:35:42.527Z,358.15
2022-12-31T09:36:42.228Z,371.17
2022-12-31T09:37:42.608Z,384.23
2022-12-31T09:38:42.213Z,398.04
2022-12-31T09:39:42.902Z,402.87
2022-12-31T09:40:43.526Z,408.82
2022-12-31T09:41:42.212Z,415.21
2022-12-31T09:42:42.135Z,427.50
2022-12-31T09:43:42.164Z,437.06
2022-12-31T09:45:05.340Z,442.89
2022-12-31T09:45:44.024Z,445.86
2022-12-31T09:46:42.910Z,448.57
2022-12-31T09:47:44.529Z,442.01
2022-12-31T09:48:42.056Z,440.83
2022-12-31T09:49:42.156Z,441.12
2022-12-31T09:50:42.153Z,439.96
2022-12-31T09:51:42.027Z,435.34
2022-12-31T09:52:42.003Z,428.60
2022-12-31T09:53:42.020Z,422.61
2022-12-31T09:54:42.176Z,431.95
2022-12-31T09:55:41.992Z,431.67
2022-12-31T09:56:41.967Z,430.55
2022-12-31T09:57:41.949Z,432.51
2022-12-31T09:58:41.952Z,438.22
2022-12-31T09:59:41.969Z,435.34
2022-12-31T10:00:41.965Z,429.99
2022-12-31T10:01:42.038Z,436.49
2022-12-31T10:02:42.155Z,441.42
2022-12-31T10:03:41.959Z,442.89
2022-12-31T10:04:42.051Z,443.48
2022-12-31T10:05:41.895Z,439.67
2022-12-31T11:45:14.761Z,38.20
2022-12-31T11:46:03.772Z,49.88
2022-12-31T11:47:04.169Z,66.37
2022-12-31T11:49:02.533Z,99.37
2022-12-31T11:50:08.281Z,112.86
2022-12-31T11:51:02.565Z,131.42
2022-12-31T11:52:02.783Z,153.37
2022-12-31T11:53:02.547Z,169.82
2022-12-31T11:54:02.686Z,185.24
2022-12-31T11:55:02.591Z,201.57
2022-12-31T11:56:03.455Z,220.62
2022-12-31T11:57:02.472Z,236.41
2022-12-31T11:58:02.531Z,247.88
2022-12-31T11:59:09.276Z,257.25
2022-12-31T12:00:02.561Z,280.42
2022-12-31T12:01:09.037Z,297.25
2022-12-31T12:02:03.306Z,307.02
2022-12-31T12:03:12.430Z,311.41
2022-12-31T12:04:02.574Z,317.46
2022-12-31T12:05:10.316Z,327.97
2022-12-31T12:06:04.017Z,337.10
2022-12-31T12:07:03.079Z,356.20
2022-12-31T12:09:21.589Z,118.83
2022-12-31T12:10:22.590Z,197.55
2022-12-31T12:11:22.562Z,265.83
2022-12-31T12:12:22.567Z,311.11
2022-12-31T12:13:22.574Z,351.98
2022-12-31T12:14:22.610Z,389.41
2022-12-31T12:15:22.577Z,409.83
2022-12-31T12:16:22.621Z,424.22
2022-12-31T12:17:22.514Z,440.83
2022-12-31T12:18:22.565Z,444.97
2022-12-31T12:19:22.490Z,467.51
2022-12-31T12:20:22.532Z,481.40
2022-12-31T12:21:22.587Z,483.15
2022-12-31T12:22:22.507Z,484.92
2022-12-31T12:23:22.539Z,507.13
2022-12-31T12:24:22.537Z,503.28
2022-12-31T12:25:22.480Z,491.01
2022-12-31T12:26:22.440Z,505.58
2022-12-31T12:27:22.431Z,496.89
2022-12-31T12:28:22.410Z,506.74
2022-12-31T12:29:22.401Z,524.75
2022-12-31T12:30:22.446Z,540.11
2022-12-31T12:31:22.671Z,551.77
2022-12-31T12:32:22.379Z,553.61
2022-12-31T12:33:22.396Z,566.36
2022-12-31T12:34:22.359Z,557.33
2022-12-31T12:35:22.364Z,572.21
2022-12-31T12:36:22.408Z,568.78
2022-12-31T12:37:22.320Z,566.84
2022-12-31T12:38:22.303Z,587.91
2022-12-31T12:39:22.302Z,590.00
2022-12-31T12:40:22.256Z,585.32
2022-12-31T12:41:22.238Z,601.21
2022-12-31T12:42:22.271Z,621.46
2022-12-31T12:43:23.242Z,627.32
2022-12-31T12:44:22.249Z,623.79
2022-12-31T12:45:22.217Z,638.78
2022-12-31T12:46:22.255Z,640.63
2022-12-31T12:47:22.245Z,624.38
2022-12-31T12:48:22.174Z,649.40
2022-12-31T12:49:22.154Z,679.28
2022-12-31T12:50:22.197Z,664.34
2022-12-31T12:51:22.141Z,655.16
2022-12-31T12:52:22.129Z,647.50
2022-12-31T12:53:22.131Z,664.34
2022-12-31T12:54:22.122Z,687.01
2022-12-31T12:55:22.136Z,705.99
2022-12-31T12:56:22.091Z,709.00
2022-12-31T12:57:22.115Z,710.52
2022-12-31T12:58:22.154Z,712.04
2022-12-31T12:59:22.062Z,712.81
2022-12-31T13:00:22.069Z,730.04
2022-12-31T13:01:22.205Z,739.79
2022-12-31T13:02:22.259Z,745.52
2022-12-31T13:03:22.048Z,733.26
2022-12-31T13:04:37.415Z,726.05
2022-12-31T13:05:27.902Z,749.29
2022-12-31T13:06:22.115Z,786.98
2022-12-31T13:07:22.004Z,799.76
2022-12-31T13:08:22.031Z,803.14
2022-12-31T13:09:21.971Z,820.48
2022-12-31T13:10:22.156Z,837.00
2022-12-31T13:11:21.976Z,856.96
2022-12-31T13:12:21.973Z,829.69
2022-12-31T13:13:24.562Z,846.59
2022-12-31T13:14:21.958Z,843.37
2022-12-31T13:15:21.909Z,865.89
2022-12-31T13:16:21.939Z,867.58
2022-12-31T13:17:21.896Z,861.40
2022-12-31T13:18:21.869Z,845.52
2022-12-31T13:19:21.899Z,846.59
2022-12-31T13:20:21.893Z,853.66
2022-12-31T13:21:21.907Z,839.12
2022-12-31T13:22:21.877Z,842.30
2022-12-31T13:23:21.837Z,823.02
2022-12-31T13:24:21.840Z,803.14
2022-12-31T13:25:21.835Z,803.62
2022-12-31T13:26:21.877Z,802.17
2022-12-31T13:27:21.811Z,810.48
2022-12-31T13:28:21.809Z,800.24
2022-12-31T13:29:21.801Z,795.93
2022-12-31T13:30:21.789Z,771.01
2022-12-31T13:31:21.898Z,767.90
2022-12-31T13:32:21.772Z,760.00
2022-12-31T13:33:28.247Z,755.68
2022-12-31T13:34:21.704Z,745.93
2022-12-31T13:35:21.738Z,750.14
2022-12-31T13:36:21.718Z,730.04
2022-12-31T13:37:21.670Z,717.42
2022-12-31T13:38:21.705Z,711.28
2022-12-31T13:39:21.687Z,722.89
2022-12-31T13:40:21.731Z,708.25
2022-12-31T13:41:21.677Z,685.59
2022-12-31T13:42:21.648Z,689.86
2022-12-31T13:43:21.610Z,694.91
2022-12-31T13:44:21.617Z,679.97
2022-12-31T13:45:21.628Z,677.89
2022-12-31T13:46:21.679Z,673.09
2022-12-31T13:47:21.735Z,663.67
2022-12-31T13:48:21.654Z,657.11
2022-12-31T13:49:21.582Z,647.50
2022-12-31T13:50:21.565Z,651.31
2022-12-31T13:51:21.608Z,641.87
2022-12-31T13:52:21.567Z,646.87
2022-12-31T13:53:21.555Z,641.87
2022-12-31T13:54:21.547Z,648.77
2022-12-31T13:55:21.585Z,645.61
2022-12-31T13:56:21.532Z,645.61
2022-12-31T13:57:21.518Z,637.56
